Time;durP1;ratioP1;P1;durP2;ratioP2;P2;SDS_P1;SDS_P2;PMS_P1;PMS_P2;Temp;Humidity;BMP_temperature;BMP_pressure;BME280_temperature;BME280_humidity;BME280_pressure;Samples;Min_cycle;Max_cycle;Signal;HPM_P1;HPM_P2
2021/01/05 00:01:04;;;;;;;18.33;12.43;;;2.40;90.80;;;;;;6222242;28;20474;-74
2021/01/05 00:04:07;;;;;;;22.77;12.87;;;2.40;90.60;;;;;;6222428;28;20096;-74
2021/01/05 00:07:08;;;;;;;20.57;13.00;;;2.40;90.50;;;;;;6222599;28;20133;-74
2021/01/05 00:10:11;;;;;;;21.60;12.87;;;2.30;90.70;;;;;;6222361;28;20401;-74
2021/01/05 00:13:13;;;;;;;18.27;12.80;;;2.40;91.20;;;;;;6222261;28;20049;-74
2021/01/05 00:16:14;;;;;;;22.83;13.80;;;2.40;91.10;;;;;;6222742;28;20397;-74
2021/01/05 00:19:16;;;;;;;25.10;15.20;;;2.40;91.10;;;;;;6222029;28;20050;-74
2021/01/05 00:22:18;;;;;;;23.90;13.30;;;2.40;90.90;;;;;;6222210;28;20053;-74
2021/01/05 00:25:20;;;;;;;19.57;12.30;;;2.40;91.10;;;;;;6222064;28;20128;-74
2021/01/05 00:28:21;;;;;;;20.63;11.73;;;2.40;90.90;;;;;;6223183;28;20121;-74
2021/01/05 00:31:23;;;;;;;20.47;13.17;;;2.40;91.10;;;;;;6221770;28;20832;-73
2021/01/05 00:34:25;;;;;;;26.50;14.17;;;2.40;91.40;;;;;;6222448;28;20153;-74
2021/01/05 00:37:26;;;;;;;18.92;11.98;;;2.40;91.50;;;;;;6222082;28;20038;-74
2021/01/05 00:40:30;;;;;;;25.27;13.73;;;2.40;91.40;;;;;;6222233;28;20050;-74
2021/01/05 00:43:31;;;;;;;17.13;11.50;;;2.50;91.30;;;;;;6222731;28;20574;-73
2021/01/05 00:46:32;;;;;;;18.97;11.80;;;2.50;91.70;;;;;;6222736;28;20049;-74
2021/01/05 00:49:34;;;;;;;23.60;13.77;;;2.40;91.70;;;;;;6222210;28;20044;-74
2021/01/05 00:52:36;;;;;;;26.40;13.60;;;2.50;91.80;;;;;;6222104;28;20050;-74
2021/01/05 00:55:37;;;;;;;25.73;13.80;;;2.50;91.70;;;;;;6222675;28;20140;-74
2021/01/05 00:58:38;;;;;;;25.50;13.13;;;2.50;91.90;;;;;;6221363;28;20423;-74
2021/01/05 01:01:39;;;;;;;24.03;12.83;;;2.50;91.90;;;;;;6221316;28;20041;-74
2021/01/05 01:04:42;;;;;;;20.10;12.03;;;2.60;91.90;;;;;;6221861;28;20136;-74
2021/01/05 01:07:43;;;;;;;24.90;15.13;;;2.50;91.70;;;;;;6222990;28;20085;-74
2021/01/05 01:10:45;;;;;;;23.57;15.67;;;2.50;91.50;;;;;;6221447;28;20041;-74
2021/01/05 01:13:46;;;;;;;21.23;13.90;;;2.50;91.70;;;;;;6231257;28;20461;-74
2021/01/05 01:16:47;;;;;;;19.97;12.13;;;2.50;91.70;;;;;;6248955;28;20124;-74
2021/01/05 01:19:50;;;;;;;19.98;12.80;;;2.40;91.50;;;;;;6251555;28;20055;-74
2021/01/05 01:22:51;;;;;;;24.47;14.70;;;2.40;92.00;;;;;;6250426;28;20049;-74
2021/01/05 01:25:52;;;;;;;27.37;14.60;;;2.40;92.10;;;;;;6251140;28;20109;-74
2021/01/05 01:28:53;;;;;;;24.73;15.13;;;2.50;92.00;;;;;;6250280;28;20049;-74
2021/01/05 01:31:56;;;;;;;22.87;15.37;;;2.40;92.20;;;;;;6250524;28;20049;-74
2021/01/05 01:34:58;;;;;;;24.15;16.40;;;2.50;92.20;;;;;;6250001;28;20103;-73
2021/01/05 01:38:01;;;;;;;25.67;16.03;;;2.40;92.10;;;;;;6250360;28;20045;-74
2021/01/05 01:41:02;;;;;;;27.93;16.00;;;2.40;92.10;;;;;;6249596;28;20046;-74
2021/01/05 01:44:04;;;;;;;22.97;13.73;;;2.40;92.50;;;;;;6250928;28;20076;-74
2021/01/05 01:47:10;;;;;;;18.80;13.00;;;2.50;92.60;;;;;;6254158;28;20084;-74
2021/01/05 01:50:16;;;;;;;25.13;15.45;;;2.50;92.70;;;;;;6256454;28;20128;-74
2021/01/05 01:53:36;;;;;;;23.37;13.30;;;2.50;92.60;;;;;;6250602;28;20045;-74
2021/01/05 01:57:07;;;;;;;25.23;14.80;;;2.50;92.60;;;;;;6249868;28;20136;-73
2021/01/05 02:00:28;;;;;;;22.07;14.50;;;2.50;92.70;;;;;;6250110;28;20129;-73
2021/01/05 02:04:01;;;;;;;24.77;14.23;;;2.50;93.00;;;;;;6249291;28;20056;-73
2021/01/05 02:07:21;;;;;;;24.10;14.75;;;2.60;93.30;;;;;;6174056;28;20055;-74
2021/01/05 02:10:40;;;;;;;28.30;16.73;;;2.60;92.80;;;;;;6249293;28;20051;-74
2021/01/05 02:14:05;;;;;;;27.77;14.45;;;2.60;93.20;;;;;;6249289;28;20045;-74
2021/01/05 02:17:57;;;;;;;23.43;16.03;;;2.60;93.20;;;;;;6248964;28;20061;-74
2021/01/05 02:21:03;;;;;;;25.67;15.97;;;2.60;93.30;;;;;;6182180;28;20132;-74
2021/01/05 02:24:21;;;;;;;22.70;15.90;;;2.50;93.30;;;;;;6250349;28;20426;-74
2021/01/05 02:27:23;;;;;;;29.85;16.48;;;2.60;93.20;;;;;;6248873;28;20148;-74
2021/01/05 02:30:33;;;;;;;32.78;18.05;;;2.50;93.10;;;;;;6248877;28;20048;-74
2021/01/05 02:33:45;;;;;;;22.55;15.35;;;2.60;93.20;;;;;;6249196;28;20045;-74
2021/01/05 02:37:13;;;;;;;28.90;18.70;;;2.60;93.30;;;;;;6248799;28;20450;-74
2021/01/05 02:40:30;;;;;;;23.98;15.13;;;2.60;93.20;;;;;;6248810;28;20049;-74
2021/01/05 02:44:04;;;;;;;26.97;16.57;;;2.50;93.00;;;;;;6248935;28;20052;-74
2021/01/05 02:47:20;;;;;;;29.85;19.75;;;2.50;93.20;;;;;;6248532;28;20053;-74
2021/01/05 02:50:40;;;;;;;31.52;18.05;;;2.50;93.30;;;;;;6248307;28;20049;-74
2021/01/05 02:54:09;;;;;;;28.92;17.33;;;2.50;93.30;;;;;;6248749;28;20066;-74
2021/01/05 02:57:39;;;;;;;28.02;16.83;;;2.50;93.60;;;;;;6214662;28;20037;-74
2021/01/05 03:01:12;;;;;;;29.03;16.67;;;2.50;93.80;;;;;;6246218;28;20509;-74
2021/01/05 03:04:13;;;;;;;27.73;17.73;;;2.60;93.80;;;;;;6218152;28;20132;-74
2021/01/05 03:07:17;;;;;;;22.67;17.20;;;2.60;94.20;;;;;;6248346;28;20065;-73
2021/01/05 03:10:42;;;;;;;26.08;15.68;;;2.60;94.10;;;;;;6247834;28;20052;-74
2021/01/05 03:13:52;;;;;;;26.90;15.55;;;2.60;93.70;;;;;;6247868;28;20097;-74
2021/01/05 03:17:03;;;;;;;28.70;17.73;;;2.60;93.60;;;;;;6248277;28;20041;-74
2021/01/05 03:20:15;;;;;;;25.65;16.90;;;2.60;93.80;;;;;;6248340;28;20431;-74
2021/01/05 03:23:17;;;;;;;27.85;16.83;;;2.60;93.90;;;;;;6247635;28;20124;-74
2021/01/05 03:26:22;;;;;;;30.73;17.02;;;2.60;94.00;;;;;;6247639;28;20454;-74
2021/01/05 03:29:23;;;;;;;23.97;16.23;;;2.60;94.20;;;;;;6247367;28;20415;-74
2021/01/05 03:32:27;;;;;;;32.88;16.55;;;2.60;94.30;;;;;;6248012;28;20054;-74
2021/01/05 03:35:28;;;;;;;28.20;17.13;;;2.70;94.40;;;;;;6247974;28;20060;-74
2021/01/05 03:38:30;;;;;;;29.10;17.73;;;2.70;94.50;;;;;;6247181;28;20076;-74
2021/01/05 03:41:31;;;;;;;33.13;16.93;;;2.70;94.10;;;;;;6246933;28;20048;-74
2021/01/05 03:44:34;;;;;;;25.40;15.25;;;2.80;94.40;;;;;;6247141;28;20405;-74
2021/01/05 03:47:36;;;;;;;27.30;15.40;;;2.70;94.50;;;;;;6247540;28;20530;-74
2021/01/05 03:50:37;;;;;;;32.70;18.33;;;2.70;94.60;;;;;;6246835;28;20060;-74
2021/01/05 03:53:39;;;;;;;24.95;16.58;;;2.70;94.70;;;;;;6247017;28;20567;-74
2021/01/05 03:56:40;;;;;;;23.87;15.20;;;2.70;94.70;;;;;;6247406;28;20053;-74
2021/01/05 03:59:41;;;;;;;28.42;16.58;;;2.70;94.80;;;;;;6247212;28;20049;-74
2021/01/05 04:02:44;;;;;;;29.75;17.80;;;2.60;94.80;;;;;;6247071;28;20060;-74
2021/01/05 04:05:45;;;;;;;24.23;16.60;;;2.70;95.00;;;;;;6247049;28;20120;-73
2021/01/05 04:08:46;;;;;;;28.70;17.23;;;2.70;95.20;;;;;;6246863;28;20048;-74
2021/01/05 04:11:48;;;;;;;29.02;16.70;;;2.70;95.10;;;;;;6247127;28;20052;-74
2021/01/05 04:14:49;;;;;;;26.63;17.95;;;2.70;94.90;;;;;;6247717;28;20049;-74
2021/01/05 04:17:52;;;;;;;26.70;15.88;;;2.70;95.20;;;;;;6246668;28;20419;-74
2021/01/05 04:20:53;;;;;;;26.23;16.90;;;2.70;95.40;;;;;;6246832;28;20125;-74
2021/01/05 04:23:54;;;;;;;25.50;16.58;;;2.70;95.40;;;;;;6247109;28;20111;-74
2021/01/05 04:26:56;;;;;;;29.08;18.98;;;2.70;95.50;;;;;;6246913;28;20053;-73
2021/01/05 04:29:58;;;;;;;26.77;17.73;;;2.70;95.70;;;;;;6246451;28;20053;-74
2021/01/05 04:33:01;;;;;;;24.70;18.13;;;2.70;95.70;;;;;;6247117;28;20080;-74
2021/01/05 04:36:03;;;;;;;33.27;18.97;;;2.70;95.90;;;;;;6247210;28;20053;-74
2021/01/05 04:39:06;;;;;;;34.40;17.97;;;2.80;96.00;;;;;;6246141;28;20133;-74
2021/01/05 04:42:18;;;;;;;34.23;17.37;;;2.70;96.10;;;;;;6246474;28;20171;-74
2021/01/05 04:45:23;;;;;;;33.40;16.53;;;2.80;96.00;;;;;;6246347;28;20045;-73
2021/01/05 04:48:37;;;;;;;31.67;20.03;;;2.70;96.00;;;;;;6247318;28;20055;-74
2021/01/05 04:51:46;;;;;;;30.02;17.63;;;2.80;96.10;;;;;;6249639;28;20542;-74
2021/01/05 04:54:51;;;;;;;26.75;18.08;;;2.80;96.20;;;;;;6251067;28;20095;-74
2021/01/05 04:58:04;;;;;;;28.80;16.90;;;2.80;96.30;;;;;;6251764;28;20132;-74
2021/01/05 05:01:13;;;;;;;29.05;17.13;;;2.80;96.40;;;;;;6250918;28;20521;-74
2021/01/05 05:04:21;;;;;;;28.27;17.58;;;2.80;96.30;;;;;;6252011;28;20092;-74
2021/01/05 05:07:33;;;;;;;;;;;2.80;96.40;;;;;;6251345;28;20452;-74
2021/01/05 05:10:45;;;;;;;31.52;19.42;;;2.80;96.80;;;;;;6250871;28;19928;-74
2021/01/05 05:13:55;;;;;;;29.30;19.20;;;2.80;96.80;;;;;;6250917;28;20049;-74
2021/01/05 05:17:24;;;;;;;32.25;19.17;;;2.80;96.70;;;;;;6251173;28;20038;-74
2021/01/05 05:20:42;;;;;;;33.53;16.90;;;2.80;96.40;;;;;;6250862;28;20199;-74
2021/01/05 05:24:04;;;;;;;29.95;17.60;;;2.80;96.30;;;;;;6251127;28;20450;-74
2021/01/05 05:27:18;;;;;;;34.20;20.83;;;2.80;96.40;;;;;;6250713;28;20103;-74
2021/01/05 05:30:27;;;;;;;35.88;18.83;;;2.80;96.60;;;;;;6258244;28;20052;-74
2021/01/05 05:33:32;;;;;;;29.23;17.45;;;2.80;96.80;;;;;;6257043;28;20474;-74
2021/01/05 05:37:03;;;;;;;28.40;18.37;;;2.80;96.90;;;;;;6250648;28;20049;-74
2021/01/05 05:40:11;;;;;;;31.87;17.33;;;2.80;96.90;;;;;;6250795;28;20053;-74
2021/01/05 05:43:38;;;;;;;28.63;16.95;;;2.80;97.10;;;;;;6250274;28;20048;-74
2021/01/05 05:46:43;;;;;;;33.90;19.73;;;2.80;97.10;;;;;;6250583;28;20057;-74
2021/01/05 05:49:52;;;;;;;31.67;19.27;;;2.80;97.40;;;;;;6250019;28;20049;-74
2021/01/05 05:52:58;;;;;;;28.52;18.58;;;2.80;97.20;;;;;;6250171;28;20060;-74
2021/01/05 05:56:04;;;;;;;32.40;19.45;;;2.80;97.20;;;;;;6250323;28;20520;-73
2021/01/05 05:59:06;;;;;;;30.00;19.00;;;2.80;97.20;;;;;;6250109;28;20098;-73
2021/01/05 06:02:12;;;;;;;27.40;17.00;;;2.80;97.30;;;;;;6249360;28;20129;-73
2021/01/05 06:05:23;;;;;;;32.20;19.17;;;2.80;97.30;;;;;;6250090;28;20068;-73
2021/01/05 06:08:26;;;;;;;34.47;19.87;;;2.80;97.20;;;;;;6249915;28;20057;-73
2021/01/05 06:11:27;;;;;;;33.10;19.15;;;2.80;97.30;;;;;;6249493;28;20134;-73
2021/01/05 06:14:30;;;;;;;33.67;20.08;;;2.80;97.30;;;;;;6250345;28;20095;-73
2021/01/05 06:17:31;;;;;;;28.50;18.87;;;2.80;97.30;;;;;;6249423;28;20137;-73
2021/01/05 06:20:33;;;;;;;40.35;19.33;;;2.80;97.30;;;;;;6248829;28;20525;-73
2021/01/05 06:23:35;;;;;;;37.28;20.55;;;2.80;97.20;;;;;;6249914;28;20052;-74
2021/01/05 06:26:36;;;;;;;31.00;18.70;;;2.70;97.30;;;;;;6249211;28;20061;-73
2021/01/05 06:29:38;;;;;;;30.35;16.50;;;2.70;97.30;;;;;;6248735;28;20092;-73
2021/01/05 06:32:39;;;;;;;31.13;19.00;;;2.80;97.50;;;;;;6249588;28;20479;-74
2021/01/05 06:35:41;;;;;;;30.85;17.98;;;2.80;97.50;;;;;;6249816;28;20071;-74
2021/01/05 06:38:43;;;;;;;31.17;18.63;;;2.80;97.40;;;;;;6248960;28;20129;-74
2021/01/05 06:41:44;;;;;;;35.30;20.23;;;2.80;97.10;;;;;;6248573;28;20049;-74
2021/01/05 06:44:46;;;;;;;29.03;17.87;;;2.80;97.20;;;;;;6249747;28;20060;-74
2021/01/05 06:47:47;;;;;;;34.97;19.60;;;2.80;97.40;;;;;;6250297;28;20053;-74
2021/01/05 06:50:49;;;;;;;35.90;18.83;;;2.80;97.40;;;;;;6248703;28;20639;-75
2021/01/05 06:53:51;;;;;;;32.17;19.95;;;2.90;97.40;;;;;;6243077;28;20046;-74
2021/01/05 06:56:53;;;;;;;33.38;19.00;;;2.90;97.40;;;;;;6220644;28;20125;-74
2021/01/05 06:59:55;;;;;;;34.20;18.67;;;2.90;97.40;;;;;;6200131;28;20053;-74
2021/01/05 07:02:57;;;;;;;38.58;17.70;;;2.90;97.50;;;;;;6219532;28;20046;-74
2021/01/05 07:05:58;;;;;;;24.70;16.02;;;3.00;97.10;;;;;;6216199;28;20129;-74
2021/01/05 07:09:00;;;;;;;32.27;21.03;;;3.00;97.10;;;;;;6217198;28;20125;-74
2021/01/05 07:12:01;;;;;;;34.80;18.80;;;3.00;97.20;;;;;;6199705;28;20064;-74
2021/01/05 07:15:05;;;;;;;29.45;18.00;;;3.00;97.30;;;;;;6219441;28;20136;-74
2021/01/05 07:18:06;;;;;;;33.42;17.27;;;3.00;97.20;;;;;;6223811;28;20080;-74
2021/01/05 07:21:07;;;;;;;32.60;19.80;;;3.00;97.20;;;;;;6222859;28;20443;-74
2021/01/05 07:24:10;;;;;;;25.55;16.02;;;3.00;97.20;;;;;;6224051;28;20069;-75
2021/01/05 07:27:12;;;;;;;28.67;18.23;;;3.00;97.20;;;;;;6223341;28;20526;-75
2021/01/05 07:30:14;;;;;;;29.47;19.53;;;3.00;97.30;;;;;;6223326;28;20080;-74
2021/01/05 07:33:15;;;;;;;31.30;19.08;;;3.00;97.30;;;;;;6222860;28;20069;-74
2021/01/05 07:36:23;;;;;;;32.37;19.63;;;3.00;97.30;;;;;;6223589;28;20133;-75
2021/01/05 07:39:27;;;;;;;30.85;19.88;;;3.10;97.30;;;;;;6222892;28;20424;-74
2021/01/05 07:42:31;;;;;;;28.08;19.02;;;3.10;97.30;;;;;;6222400;28;20041;-74
2021/01/05 07:45:32;;;;;;;31.58;19.70;;;3.10;97.40;;;;;;6222682;28;20042;-74
2021/01/05 07:48:34;;;;;;;31.60;17.92;;;3.10;97.20;;;;;;6223111;28;20054;-74
2021/01/05 07:51:35;;;;;;;32.03;16.77;;;3.10;97.20;;;;;;6223421;28;20049;-75
2021/01/05 07:54:37;;;;;;;27.00;18.02;;;3.10;97.10;;;;;;6222796;28;20132;-74
2021/01/05 07:57:39;;;;;;;26.50;16.58;;;3.20;97.10;;;;;;6222639;28;20045;-75
2021/01/05 08:00:40;;;;;;;26.20;16.40;;;3.20;97.40;;;;;;6222468;28;20085;-74
2021/01/05 08:03:41;;;;;;;35.65;20.23;;;3.20;96.90;;;;;;6223211;28;20052;-74
2021/01/05 08:06:43;;;;;;;26.92;17.88;;;3.30;96.90;;;;;;6223439;28;20062;-74
2021/01/05 08:09:45;;;;;;;21.88;14.20;;;3.30;96.80;;;;;;6222685;28;20100;-74
2021/01/05 08:12:47;;;;;;;20.77;13.52;;;3.30;96.70;;;;;;6218037;28;20558;-74
2021/01/05 08:15:48;;;;;;;19.80;14.18;;;3.30;96.40;;;;;;6198400;28;20650;-74
2021/01/05 08:18:49;;;;;;;21.48;15.00;;;3.30;96.20;;;;;;6197981;28;20121;-74
2021/01/05 08:21:51;;;;;;;20.33;13.73;;;3.30;96.10;;;;;;6197997;28;20124;-74
2021/01/05 08:24:55;;;;;;;16.42;13.55;;;3.30;96.10;;;;;;6199626;28;20570;-74
2021/01/05 08:27:56;;;;;;;19.73;13.48;;;3.30;96.10;;;;;;6204058;28;20107;-73
2021/01/05 08:30:58;;;;;;;21.75;13.00;;;3.30;96.10;;;;;;6202743;28;20085;-73
2021/01/05 08:33:59;;;;;;;21.08;14.23;;;3.30;95.90;;;;;;6202234;28;20504;-73
2021/01/05 08:37:01;;;;;;;21.52;13.80;;;3.30;95.80;;;;;;6203661;28;20062;-73
2021/01/05 08:40:04;;;;;;;21.02;12.82;;;3.30;95.60;;;;;;6203142;28;20061;-74
2021/01/05 08:43:08;;;;;;;21.45;14.32;;;3.30;95.50;;;;;;6203578;28;20046;-74
2021/01/05 08:46:10;;;;;;;18.50;12.13;;;3.40;95.70;;;;;;6202909;28;20046;-74
2021/01/05 08:49:11;;;;;;;22.85;15.23;;;3.40;95.80;;;;;;6202575;28;20401;-74
2021/01/05 08:52:12;;;;;;;18.85;13.82;;;3.40;95.60;;;;;;6203203;28;20050;-74
2021/01/05 08:55:15;;;;;;;17.88;13.35;;;3.40;95.60;;;;;;6202480;28;20049;-75
2021/01/05 08:58:16;;;;;;;22.88;14.68;;;3.50;95.60;;;;;;6202845;28;20137;-75
2021/01/05 09:01:18;;;;;;;18.75;12.02;;;3.50;95.50;;;;;;6202660;28;20046;-75
2021/01/05 09:04:19;;;;;;;23.13;14.35;;;3.50;95.20;;;;;;6203055;28;20137;-74
2021/01/05 09:07:21;;;;;;;19.60;13.23;;;3.50;94.80;;;;;;6202005;28;20121;-74
2021/01/05 09:10:25;;;;;;;18.77;13.25;;;3.40;94.60;;;;;;6201775;28;20423;-74
2021/01/05 09:13:26;;;;;;;21.60;13.70;;;3.40;94.60;;;;;;6206889;28;20065;-74
2021/01/05 09:16:29;;;;;;;21.65;16.30;;;3.40;94.60;;;;;;6210398;28;20215;-74
2021/01/05 09:19:31;;;;;;;22.00;13.13;;;3.40;94.90;;;;;;6214678;28;20053;-74
2021/01/05 09:22:32;;;;;;;22.38;13.38;;;3.40;94.70;;;;;;6205141;28;20043;-74
2021/01/05 09:25:37;;;;;;;19.65;13.38;;;3.40;94.50;;;;;;6203756;28;20038;-74
2021/01/05 09:28:38;;;;;;;16.73;12.75;;;3.40;94.60;;;;;;6202906;28;20140;-75
2021/01/05 09:31:41;;;;;;;21.55;12.52;;;3.40;95.10;;;;;;6202496;28;20049;-74
2021/01/05 09:34:42;;;;;;;23.92;14.93;;;3.50;94.90;;;;;;6201654;28;20073;-73
2021/01/05 09:37:45;;;;;;;16.25;11.55;;;3.50;94.70;;;;;;6201061;28;20050;-74
2021/01/05 09:40:47;;;;;;;18.45;13.88;;;3.50;95.10;;;;;;6201103;28;20146;-73
2021/01/05 09:43:49;;;;;;;22.58;13.65;;;3.60;94.90;;;;;;6202347;28;20137;-74
2021/01/05 09:46:51;;;;;;;19.05;13.13;;;3.70;94.80;;;;;;6201484;28;20050;-74
2021/01/05 09:49:52;;;;;;;19.92;14.45;;;3.70;94.70;;;;;;6201075;28;20056;-75
2021/01/05 09:52:53;;;;;;;19.95;13.25;;;3.70;94.70;;;;;;6201711;28;20042;-74
2021/01/05 09:55:56;;;;;;;16.27;11.00;;;3.80;94.50;;;;;;6202170;28;20547;-74
2021/01/05 09:58:57;;;;;;;20.48;12.45;;;3.80;94.50;;;;;;6201567;28;20096;-74
2021/01/05 10:02:03;;;;;;;20.52;13.13;;;3.80;94.40;;;;;;6201058;28;20044;-74
2021/01/05 10:05:05;;;;;;;20.15;13.65;;;3.80;94.50;;;;;;6201936;28;20065;-74
2021/01/05 10:08:06;;;;;;;19.20;14.13;;;3.70;94.70;;;;;;6202727;28;20154;-74
2021/01/05 10:11:08;;;;;;;23.33;13.40;;;3.70;94.90;;;;;;6201848;28;20053;-74
2021/01/05 10:14:13;;;;;;;30.10;21.35;;;3.70;94.90;;;;;;6218195;28;20054;-74
2021/01/05 10:17:15;;;;;;;135.15;78.82;;;3.70;94.80;;;;;;6226790;28;20103;-74
2021/01/05 10:20:17;;;;;;;29.75;23.80;;;3.70;94.90;;;;;;6227017;28;20062;-75
2021/01/05 10:23:19;;;;;;;26.75;22.58;;;3.70;94.70;;;;;;6228151;28;20196;-74
2021/01/05 10:26:21;;;;;;;22.25;14.90;;;3.70;94.90;;;;;;6238362;28;20069;-75
2021/01/05 10:29:24;;;;;;;25.70;14.57;;;3.70;95.00;;;;;;6231884;28;20042;-74
2021/01/05 10:32:25;;;;;;;19.13;12.93;;;3.70;95.00;;;;;;6226027;28;20053;-74
2021/01/05 10:35:27;;;;;;;20.08;14.90;;;3.70;95.10;;;;;;6200440;28;20055;-74
2021/01/05 10:38:28;;;;;;;19.67;14.05;;;3.70;95.10;;;;;;6200365;28;20661;-73
2021/01/05 10:41:35;;;;;;;22.60;16.42;;;3.60;95.20;;;;;;6208304;28;20045;-75
2021/01/05 10:44:36;;;;;;;23.08;13.82;;;3.60;95.50;;;;;;6225113;28;20199;-75
2021/01/05 10:47:39;;;;;;;22.05;14.40;;;3.60;95.70;;;;;;6224492;28;20061;-75
2021/01/05 10:50:40;;;;;;;20.00;15.07;;;3.60;96.00;;;;;;6206476;28;20042;-74
2021/01/05 10:53:42;;;;;;;21.88;14.93;;;3.60;96.10;;;;;;6210234;28;20523;-74
2021/01/05 10:56:45;;;;;;;22.33;14.07;;;3.60;96.10;;;;;;6224670;28;20072;-74
2021/01/05 10:59:46;;;;;;;18.02;13.82;;;3.60;96.30;;;;;;6224252;28;20508;-74
2021/01/05 11:02:47;;;;;;;22.75;14.60;;;3.60;96.00;;;;;;6204555;28;20074;-74
2021/01/05 11:05:49;;;;;;;21.00;14.73;;;3.50;96.40;;;;;;6210812;28;20141;-74
2021/01/05 11:08:50;;;;;;;19.52;13.82;;;3.60;96.60;;;;;;6224440;28;20389;-74
2021/01/05 11:12:03;;;;;;;22.60;15.07;;;3.60;96.70;;;;;;6224022;28;20045;-74
2021/01/05 11:15:06;;;;;;;17.23;11.98;;;3.70;98.30;;;;;;6202472;28;20046;-75
2021/01/05 11:18:07;;;;;;;21.48;12.90;;;3.80;97.80;;;;;;6213546;28;20050;-75
2021/01/05 11:21:10;;;;;;;18.33;13.23;;;3.80;97.30;;;;;;6223982;28;20483;-75
2021/01/05 11:24:12;;;;;;;28.05;16.77;;;3.80;97.20;;;;;;6225330;28;20091;-75
2021/01/05 11:27:15;;;;;;;21.83;15.23;;;3.80;97.00;;;;;;6201566;28;20061;-74
2021/01/05 11:30:21;;;;;;;25.50;16.60;;;3.80;96.90;;;;;;6214745;28;20058;-74
2021/01/05 11:33:22;;;;;;;19.08;14.43;;;3.80;97.00;;;;;;6224794;28;20046;-74
2021/01/05 11:36:25;;;;;;;18.48;12.75;;;3.80;96.90;;;;;;6225213;28;20137;-74
2021/01/05 11:39:26;;;;;;;18.88;13.48;;;3.80;96.70;;;;;;6225539;28;20191;-75
2021/01/05 11:42:28;;;;;;;24.92;14.52;;;3.70;96.70;;;;;;6243241;28;20056;-75
2021/01/05 11:45:29;;;;;;;22.38;14.88;;;3.70;96.80;;;;;;6254329;28;20053;-76
2021/01/05 11:48:31;;;;;;;21.98;14.75;;;3.80;97.30;;;;;;6253698;28;20033;-76
2021/01/05 11:51:34;;;;;;;25.73;15.82;;;3.70;97.00;;;;;;6253917;28;20042;-75
2021/01/05 11:54:36;;;;;;;21.33;14.63;;;3.70;97.00;;;;;;6254177;28;20050;-75
2021/01/05 11:57:38;;;;;;;25.92;16.85;;;3.70;97.10;;;;;;6253129;28;20097;-76
2021/01/05 12:00:40;;;;;;;28.05;15.70;;;3.70;97.20;;;;;;6251349;28;20076;-75
2021/01/05 12:03:41;;;;;;;28.38;19.05;;;3.70;97.20;;;;;;6229942;28;20046;-74
2021/01/05 12:06:47;;;;;;;24.90;16.45;;;3.80;97.40;;;;;;6224283;28;20046;-75
2021/01/05 12:09:48;;;;;;;23.35;15.52;;;3.80;97.30;;;;;;6223818;28;20534;-75
2021/01/05 12:12:50;;;;;;;25.42;17.33;;;3.80;97.30;;;;;;6217835;28;20050;-75
2021/01/05 12:15:52;;;;;;;26.92;17.23;;;3.80;97.40;;;;;;6199264;28;20050;-75
2021/01/05 12:18:54;;;;;;;29.58;16.38;;;3.80;97.20;;;;;;6198909;28;20107;-75
2021/01/05 12:21:57;;;;;;;27.50;17.90;;;3.80;97.30;;;;;;6198391;28;20153;-75
2021/01/05 12:24:59;;;;;;;24.65;16.63;;;3.80;97.20;;;;;;6198900;28;20130;-75
2021/01/05 12:28:01;;;;;;;21.50;16.17;;;3.90;97.20;;;;;;6198356;28;20050;-75
2021/01/05 12:31:02;;;;;;;28.83;16.63;;;3.90;97.20;;;;;;6198160;28;20122;-75
2021/01/05 12:34:04;;;;;;;25.13;16.17;;;3.90;97.20;;;;;;6198319;28;20508;-75
2021/01/05 12:37:07;;;;;;;23.02;16.17;;;3.90;96.80;;;;;;6198753;28;20046;-74
2021/01/05 12:40:10;;;;;;;23.15;15.30;;;4.00;96.80;;;;;;6198201;28;20061;-72
2021/01/05 12:43:12;;;;;;;26.88;16.55;;;4.00;96.60;;;;;;6214864;23;20050;-78
2021/01/05 12:46:22;;;;;;;25.42;17.50;;;4.10;97.60;;;;;;6158751;28;20070;-78
2021/01/05 12:49:24;;;;;;;23.95;14.52;;;4.20;96.90;;;;;;6149542;28;20051;-78
2021/01/05 12:52:25;;;;;;;24.08;15.25;;;4.20;96.20;;;;;;6147993;28;20121;-78
2021/01/05 12:55:27;;;;;;;21.48;13.57;;;4.10;96.00;;;;;;6195858;28;20061;-78
2021/01/05 12:58:29;;;;;;;22.67;15.10;;;4.10;96.10;;;;;;6197708;28;20061;-78
2021/01/05 13:01:30;;;;;;;25.40;15.68;;;4.10;95.90;;;;;;6191461;28;20511;-78
2021/01/05 13:04:32;;;;;;;22.27;15.38;;;4.10;95.50;;;;;;6196054;28;20061;-77
2021/01/05 13:07:33;;;;;;;22.02;15.15;;;4.10;95.30;;;;;;6192835;28;20074;-78
2021/01/05 13:10:34;;;;;;;26.70;16.73;;;4.10;95.60;;;;;;6193728;28;20046;-78
2021/01/05 13:13:38;;;;;;;25.45;15.80;;;4.00;95.60;;;;;;6199896;28;20047;-78
2021/01/05 13:16:40;;;;;;;29.58;18.90;;;4.00;95.70;;;;;;6200322;28;20085;-79
2021/01/05 13:19:42;;;;;;;22.20;16.48;;;4.00;95.90;;;;;;6197109;28;20581;-78
2021/01/05 13:22:43;;;;;;;22.50;15.85;;;4.00;95.90;;;;;;6197899;28;20124;-78
2021/01/05 13:25:44;;;;;;;22.33;16.63;;;4.00;95.60;;;;;;6194815;28;20058;-77
2021/01/05 13:28:46;;;;;;;25.27;15.73;;;4.00;95.90;;;;;;6197196;28;20512;-77
2021/01/05 13:31:50;;;;;;;24.33;16.48;;;4.00;95.70;;;;;;6197248;28;20081;-78
2021/01/05 13:34:52;;;;;;;21.08;14.52;;;4.00;95.80;;;;;;6194234;28;20093;-78
2021/01/05 13:37:53;;;;;;;22.02;16.33;;;4.10;96.00;;;;;;6199901;28;20523;-78
2021/01/05 13:40:54;;;;;;;23.90;15.15;;;4.10;95.90;;;;;;6198572;28;20081;-78
2021/01/05 13:43:58;;;;;;;23.23;13.40;;;4.10;95.80;;;;;;6199734;28;20046;-78
2021/01/05 13:47:01;;;;;;;21.42;15.75;;;4.10;95.80;;;;;;6198796;28;20046;-77
2021/01/05 13:50:02;;;;;;;25.63;15.35;;;4.10;95.90;;;;;;6197349;28;20054;-78
2021/01/05 13:53:04;;;;;;;19.45;14.30;;;4.10;96.00;;;;;;6192264;28;20540;-77
2021/01/05 13:56:12;;;;;;;23.50;14.40;;;4.20;95.90;;;;;;6199900;28;20086;-77
2021/01/05 13:59:14;;;;;;;20.73;14.27;;;4.20;95.90;;;;;;6197599;28;20050;-77
2021/01/05 14:02:17;;;;;;;24.75;14.20;;;4.20;96.00;;;;;;6196260;28;20145;-77
2021/01/05 14:05:18;;;;;;;23.85;14.40;;;4.20;95.90;;;;;;6190711;28;20117;-78
2021/01/05 14:08:20;;;;;;;30.63;19.50;;;4.10;95.90;;;;;;6181728;28;20053;-79
2021/01/05 14:11:25;;;;;;;27.05;16.30;;;4.20;98.20;;;;;;6163454;28;20057;-78
2021/01/05 14:14:28;;;;;;;19.13;13.35;;;4.70;99.90;;;;;;6169571;28;20047;-77
2021/01/05 14:17:30;;;;;;;21.20;13.40;;;5.40;99.90;;;;;;6160296;28;20401;-75
2021/01/05 14:20:31;;;;;;;18.35;12.10;;;5.80;99.90;;;;;;6145264;28;20062;-75
2021/01/05 14:23:32;;;;;;;14.25;11.00;;;6.00;98.80;;;;;;6137451;28;20456;-78
2021/01/05 14:26:35;;;;;;;17.80;12.13;;;6.00;97.60;;;;;;6145343;28;20062;-78
2021/01/05 14:29:37;;;;;;;16.42;10.82;;;5.70;97.20;;;;;;6149634;28;20508;-77
2021/01/05 14:32:39;;;;;;;19.27;12.68;;;5.30;96.50;;;;;;6147566;28;20231;-78
2021/01/05 14:35:40;;;;;;;21.83;14.82;;;5.00;96.60;;;;;;6145582;29;20050;-78
2021/01/05 14:38:41;;;;;;;39.15;26.77;;;4.90;96.70;;;;;;6137596;28;20121;-78
2021/01/05 14:41:45;;;;;;;22.73;16.17;;;4.70;96.30;;;;;;6167852;28;20054;-78
2021/01/05 14:44:47;;;;;;;19.85;14.65;;;4.60;96.00;;;;;;6190968;28;20047;-78
2021/01/05 14:47:49;;;;;;;23.98;16.40;;;4.50;95.90;;;;;;6198211;28;20050;-78
2021/01/05 14:50:50;;;;;;;20.48;14.55;;;4.40;96.10;;;;;;6196657;28;20193;-79
2021/01/05 14:53:52;;;;;;;23.58;13.77;;;4.30;96.30;;;;;;6187777;28;20042;-78
2021/01/05 14:56:56;;;;;;;27.05;14.23;;;4.30;96.20;;;;;;6196474;28;20073;-78
2021/01/05 14:59:59;;;;;;;22.05;14.65;;;4.20;96.00;;;;;;6192724;28;20046;-78
2021/01/05 15:03:00;;;;;;;19.52;14.20;;;4.20;96.30;;;;;;6197570;28;20484;-78
2021/01/05 15:06:02;;;;;;;17.13;11.90;;;4.20;96.20;;;;;;6195290;28;20069;-77
2021/01/05 15:09:07;;;;;;;21.73;13.65;;;4.30;98.50;;;;;;6197556;28;20046;-78
2021/01/05 15:12:08;;;;;;;21.52;12.18;;;4.60;98.60;;;;;;6192893;28;20165;-78
2021/01/05 15:15:12;;;;;;;15.73;10.25;;;4.80;98.50;;;;;;6190950;28;20050;-78
2021/01/05 15:18:13;;;;;;;17.60;11.00;;;5.10;98.20;;;;;;6195116;28;20057;-77
2021/01/05 15:21:14;;;;;;;16.48;12.05;;;5.30;97.10;;;;;;6182356;28;20051;-77
2021/01/05 15:24:16;;;;;;;17.60;12.52;;;5.10;95.50;;;;;;6193006;28;20058;-77
2021/01/05 15:27:17;;;;;;;17.23;11.38;;;5.00;95.60;;;;;;6195940;28;20038;-77
2021/01/05 15:30:21;;;;;;;19.20;13.65;;;4.80;95.60;;;;;;6194088;28;20142;-77
2021/01/05 15:33:22;;;;;;;18.25;12.65;;;4.70;95.30;;;;;;6193988;28;20057;-77
2021/01/05 15:36:24;;;;;;;23.83;16.27;;;4.60;95.10;;;;;;6191009;28;20123;-77
2021/01/05 15:39:27;;;;;;;20.55;14.82;;;4.50;95.00;;;;;;6186675;28;20463;-77
2021/01/05 15:42:28;;;;;;;18.30;14.10;;;4.40;95.00;;;;;;6186293;28;20054;-77
2021/01/05 15:45:31;;;;;;;22.48;14.93;;;4.30;95.00;;;;;;6190061;28;20051;-78
2021/01/05 15:48:32;;;;;;;24.45;15.10;;;4.20;95.30;;;;;;6192808;28;20046;-78